Time;durP1;ratioP1;P1;durP2;ratioP2;P2;SDS_P1;SDS_P2;PMS_P1;PMS_P2;Temp;Humidity;BMP_temperature;BMP_pressure;BME280_temperature;BME280_humidity;BME280_pressure;Samples;Min_cycle;Max_cycle;Signal;HPM_P1;HPM_P2
2023/03/04 00:02:26;;;;;;;36.47;18.53;;;4.00;99.90;;;;;;5008747;28;20210;-67
2023/03/04 00:04:51;;;;;;;34.20;18.57;;;4.00;99.90;;;;;;4995955;28;20187;-67
2023/03/04 00:07:17;;;;;;;33.20;18.37;;;4.00;99.90;;;;;;4997115;28;20190;-67
2023/03/04 00:09:44;;;;;;;32.40;17.10;;;4.00;99.90;;;;;;5006921;28;20203;-67
2023/03/04 00:12:10;;;;;;;35.87;18.97;;;4.10;99.90;;;;;;5016472;28;20202;-67
2023/03/04 00:14:35;;;;;;;34.63;18.50;;;4.10;99.90;;;;;;5032781;28;20269;-67
2023/03/04 00:17:03;;;;;;;34.77;18.60;;;4.10;99.90;;;;;;5032647;28;20202;-68
2023/03/04 00:19:31;;;;;;;30.73;17.97;;;4.10;99.90;;;;;;5032628;28;20179;-66
2023/03/04 00:21:57;;;;;;;34.07;17.40;;;4.10;99.90;;;;;;5031756;28;20179;-67
2023/03/04 00:24:24;;;;;;;34.17;17.70;;;4.10;99.90;;;;;;5018254;28;20203;-67
2023/03/04 00:26:50;;;;;;;31.10;17.10;;;4.10;99.90;;;;;;5020635;28;20177;-66
2023/03/04 00:29:16;;;;;;;32.37;16.87;;;4.10;99.90;;;;;;4996006;28;20180;-67
2023/03/04 00:31:41;;;;;;;31.90;17.10;;;4.20;99.90;;;;;;4992673;28;20250;-67
2023/03/04 00:34:11;;;;;;;33.57;17.67;;;4.20;99.90;;;;;;5013128;28;20171;-67
2023/03/04 00:36:37;;;;;;;33.00;16.90;;;4.20;99.90;;;;;;5016034;28;20175;-67
2023/03/04 00:39:05;;;;;;;31.83;17.53;;;4.10;99.90;;;;;;4995011;28;20230;-65
2023/03/04 00:41:31;;;;;;;29.40;16.37;;;4.20;99.90;;;;;;4997011;28;20187;-66
2023/03/04 00:43:56;;;;;;;31.07;16.20;;;4.20;99.90;;;;;;4993604;28;20249;-67
2023/03/04 00:46:24;;;;;;;30.63;16.50;;;4.20;99.90;;;;;;4993923;28;20303;-66
2023/03/04 00:48:50;;;;;;;31.73;16.90;;;4.20;99.90;;;;;;4991717;28;20184;-67
2023/03/04 00:51:20;;;;;;;31.77;16.97;;;4.30;99.90;;;;;;4994758;28;20198;-66
2023/03/04 00:53:48;;;;;;;30.53;16.63;;;4.20;99.90;;;;;;4994283;28;20294;-68
2023/03/04 00:56:14;;;;;;;34.53;17.87;;;4.20;99.90;;;;;;4994045;28;20179;-66
2023/03/04 00:58:39;;;;;;;31.43;16.63;;;4.30;99.90;;;;;;4994488;28;20241;-66
2023/03/04 01:01:06;;;;;;;28.53;16.33;;;4.30;99.90;;;;;;4994247;28;20195;-67
2023/03/04 01:03:40;;;;;;;28.67;16.03;;;4.40;99.90;;;;;;4991017;28;20184;-65
2023/03/04 01:06:06;;;;;;;29.57;16.23;;;4.30;99.90;;;;;;4993943;28;20265;-67
2023/03/04 01:08:33;;;;;;;30.73;16.30;;;4.30;99.90;;;;;;4992315;28;20242;-67
2023/03/04 01:11:01;;;;;;;29.37;15.17;;;4.40;99.90;;;;;;4992121;28;20325;-67
2023/03/04 01:13:27;;;;;;;31.20;15.23;;;4.40;99.90;;;;;;4994826;28;20195;-67
2023/03/04 01:15:54;;;;;;;25.47;13.97;;;4.40;99.90;;;;;;4995360;28;20202;-67
2023/03/04 01:18:21;;;;;;;28.00;15.43;;;4.40;99.90;;;;;;4995751;28;20191;-67
2023/03/04 01:20:46;;;;;;;29.53;15.27;;;4.40;99.90;;;;;;4995619;28;20185;-67
2023/03/04 01:23:17;;;;;;;26.67;14.73;;;4.40;99.90;;;;;;4990062;28;20199;-67
2023/03/04 01:25:44;;;;;;;27.30;14.53;;;4.40;99.90;;;;;;4995373;28;20242;-67
2023/03/04 01:28:14;;;;;;;29.73;15.07;;;4.40;99.90;;;;;;4993658;28;20175;-66
2023/03/04 01:30:40;;;;;;;27.53;15.53;;;4.50;99.90;;;;;;4988842;28;20203;-66
2023/03/04 01:33:06;;;;;;;27.63;14.77;;;4.50;99.90;;;;;;4997868;28;20210;-66
2023/03/04 01:35:32;;;;;;;29.00;14.87;;;4.50;99.90;;;;;;4985050;28;20258;-66
2023/03/04 01:37:57;;;;;;;27.80;16.03;;;4.50;99.90;;;;;;4996122;28;20191;-67
2023/03/04 01:40:23;;;;;;;31.40;16.13;;;4.40;99.90;;;;;;5012566;28;20175;-66
2023/03/04 01:42:53;;;;;;;28.97;15.63;;;4.40;99.90;;;;;;4993765;28;20449;-65
2023/03/04 01:45:19;;;;;;;23.93;13.80;;;4.40;99.90;;;;;;4993335;28;20203;-66
2023/03/04 01:47:49;;;;;;;27.80;14.93;;;4.40;99.90;;;;;;5003472;28;20188;-66
2023/03/04 01:50:30;;;;;;;26.57;14.13;;;4.50;99.90;;;;;;4992303;28;20241;-66
2023/03/04 01:52:58;;;;;;;25.10;14.43;;;4.50;99.90;;;;;;5004617;28;20234;-66
2023/03/04 01:55:24;;;;;;;25.00;14.30;;;4.50;99.90;;;;;;4988956;28;20270;-66
2023/03/04 01:57:52;;;;;;;27.37;15.47;;;4.50;99.90;;;;;;4991584;28;20190;-66
2023/03/04 02:00:21;;;;;;;26.50;14.23;;;4.50;99.90;;;;;;4994126;28;20219;-66
2023/03/04 02:02:51;;;;;;;25.60;13.27;;;4.50;99.90;;;;;;4992989;28;20191;-66
2023/03/04 02:05:17;;;;;;;21.63;12.43;;;4.50;99.90;;;;;;4993727;28;20198;-66
2023/03/04 02:07:43;;;;;;;23.40;12.80;;;4.50;99.90;;;;;;4995004;28;20205;-66
2023/03/04 02:10:10;;;;;;;24.73;13.73;;;4.50;99.90;;;;;;4992437;28;20266;-67
2023/03/04 02:12:37;;;;;;;24.80;12.80;;;4.50;99.90;;;;;;5012330;28;20226;-66
2023/03/04 02:15:03;;;;;;;24.03;13.03;;;4.50;99.90;;;;;;4994970;28;20172;-66
2023/03/04 02:17:31;;;;;;;25.33;13.17;;;4.50;99.90;;;;;;5018064;28;20197;-67
2023/03/04 02:20:19;;;;;;;25.03;12.43;;;4.50;99.90;;;;;;4985558;28;20202;-67
2023/03/04 02:23:00;;;;;;;20.23;11.17;;;4.50;99.90;;;;;;4999835;28;20263;-66
2023/03/04 02:25:36;;;;;;;20.53;11.20;;;4.60;99.90;;;;;;4991317;28;20168;-66
2023/03/04 02:28:02;;;;;;;25.37;12.73;;;4.60;99.90;;;;;;4979604;28;20198;-66
2023/03/04 02:30:30;;;;;;;21.23;10.97;;;4.60;99.90;;;;;;5031292;28;20172;-66
2023/03/04 02:32:58;;;;;;;19.27;11.30;;;4.60;99.90;;;;;;4998546;28;20187;-66
2023/03/04 02:35:25;;;;;;;18.87;10.23;;;4.70;99.90;;;;;;5001615;28;20206;-66
2023/03/04 02:37:51;;;;;;;16.40;9.93;;;4.60;99.90;;;;;;4994940;28;20270;-67
2023/03/04 02:40:30;;;;;;;18.43;10.70;;;4.60;99.90;;;;;;4990821;28;20268;-66
2023/03/04 02:43:02;;;;;;;17.47;10.20;;;4.70;99.90;;;;;;4992123;28;20298;-66
2023/03/04 02:45:37;;;;;;;17.23;10.23;;;4.70;99.90;;;;;;4994865;28;20243;-66
2023/03/04 02:48:03;;;;;;;18.03;10.07;;;4.70;99.90;;;;;;4995565;28;20175;-66
2023/03/04 02:50:35;;;;;;;18.73;9.70;;;4.70;99.90;;;;;;4997607;28;20275;-66
2023/03/04 02:53:00;;;;;;;17.10;10.03;;;4.70;99.90;;;;;;4995655;28;20213;-67
2023/03/04 02:55:27;;;;;;;16.10;9.50;;;4.70;99.90;;;;;;4996758;28;20254;-66
2023/03/04 02:57:53;;;;;;;16.97;9.77;;;4.80;99.90;;;;;;4997520;28;20195;-67
2023/03/04 03:00:18;;;;;;;17.03;10.07;;;4.80;99.90;;;;;;4998449;28;20253;-66
2023/03/04 03:02:44;;;;;;;16.87;9.57;;;4.80;99.90;;;;;;5000746;28;20244;-61
2023/03/04 03:05:11;;;;;;;16.90;9.03;;;4.80;99.90;;;;;;4995132;28;20211;-64
2023/03/04 03:07:37;;;;;;;14.80;8.67;;;4.80;99.90;;;;;;4984311;28;20184;-66
2023/03/04 03:10:08;;;;;;;18.33;9.80;;;4.90;99.90;;;;;;4998485;28;20194;-64
2023/03/04 03:12:34;;;;;;;15.63;9.33;;;4.90;99.90;;;;;;4988336;28;20223;-65
2023/03/04 03:14:59;;;;;;;16.27;9.07;;;4.90;99.90;;;;;;4997597;28;20214;-66
2023/03/04 03:17:25;;;;;;;16.20;9.90;;;4.90;99.90;;;;;;4997304;28;20180;-64
2023/03/04 03:19:50;;;;;;;16.00;9.20;;;4.90;99.90;;;;;;4998177;28;20191;-65
2023/03/04 03:22:16;;;;;;;17.67;8.53;;;5.00;99.90;;;;;;4996157;28;20179;-66
2023/03/04 03:24:42;;;;;;;16.83;8.73;;;4.90;99.90;;;;;;4996218;28;20250;-65
2023/03/04 03:27:09;;;;;;;14.27;7.90;;;4.90;99.90;;;;;;4996305;28;20207;-65
2023/03/04 03:29:37;;;;;;;12.63;8.00;;;5.00;99.90;;;;;;4995820;28;20179;-65
2023/03/04 03:32:05;;;;;;;15.50;8.63;;;5.00;99.90;;;;;;4994055;28;20200;-66
2023/03/04 03:34:30;;;;;;;13.13;7.87;;;5.00;99.90;;;;;;4990596;28;20281;-66
2023/03/04 03:36:58;;;;;;;12.40;7.80;;;5.00;99.90;;;;;;4995147;28;20339;-66
2023/03/04 03:39:24;;;;;;;11.73;6.83;;;5.00;99.90;;;;;;4992819;28;20193;-64
2023/03/04 03:41:52;;;;;;;11.80;6.97;;;5.10;99.90;;;;;;4990528;28;20204;-67
2023/03/04 03:44:18;;;;;;;14.17;7.77;;;5.10;99.90;;;;;;4994264;28;20188;-66
2023/03/04 03:46:43;;;;;;;13.43;7.27;;;5.10;99.90;;;;;;4994892;28;20246;-66
2023/03/04 03:49:09;;;;;;;11.83;6.80;;;5.10;99.90;;;;;;4994962;28;20208;-60
2023/03/04 03:51:34;;;;;;;11.23;6.20;;;5.10;99.90;;;;;;5008727;28;20226;-66
2023/03/04 03:54:05;;;;;;;11.43;6.87;;;5.10;99.90;;;;;;4995130;28;20171;-66
2023/03/04 03:56:31;;;;;;;11.30;6.20;;;5.10;99.90;;;;;;4994273;28;20203;-66
2023/03/04 03:58:59;;;;;;;10.87;6.50;;;5.10;99.90;;;;;;4996338;28;20184;-66
2023/03/04 04:01:27;;;;;;;10.80;6.30;;;5.10;99.90;;;;;;4993714;28;20189;-67
2023/03/04 04:03:52;;;;;;;10.67;5.73;;;5.20;99.90;;;;;;4994909;28;20195;-64
2023/03/04 04:06:20;;;;;;;14.43;5.87;;;5.20;99.90;;;;;;4996155;28;20176;-67
2023/03/04 04:08:51;;;;;;;11.87;5.67;;;5.20;99.90;;;;;;4996777;28;20171;-66
2023/03/04 04:11:17;;;;;;;12.40;6.00;;;5.20;99.90;;;;;;4993279;28;20172;-64
2023/03/04 04:13:42;;;;;;;10.93;6.23;;;5.20;99.90;;;;;;4996498;28;20387;-68
2023/03/04 04:16:13;;;;;;;11.73;5.87;;;5.20;99.90;;;;;;4999860;28;20258;-67
2023/03/04 04:18:39;;;;;;;10.17;5.37;;;5.20;99.90;;;;;;4994458;28;20180;-64
2023/03/04 04:21:04;;;;;;;12.13;6.27;;;5.20;99.90;;;;;;4996771;28;20176;-66
2023/03/04 04:23:31;;;;;;;9.33;5.73;;;5.20;99.90;;;;;;4996799;28;20195;-63
2023/03/04 04:25:57;;;;;;;12.70;6.47;;;5.20;99.90;;;;;;4998029;28;20183;-66
2023/03/04 04:28:26;;;;;;;12.23;6.47;;;5.30;99.90;;;;;;4996301;28;20385;-67
2023/03/04 04:30:51;;;;;;;12.93;6.10;;;5.20;99.90;;;;;;4996546;28;20179;-64
2023/03/04 04:33:17;;;;;;;11.37;5.90;;;5.20;99.90;;;;;;4996465;28;20206;-67
2023/03/04 04:35:42;;;;;;;12.80;5.80;;;5.20;99.90;;;;;;4996266;28;20171;-66
2023/03/04 04:38:11;;;;;;;16.40;5.77;;;5.20;99.90;;;;;;4994498;28;20235;-63
2023/03/04 04:40:36;;;;;;;9.73;5.50;;;5.20;99.90;;;;;;4996983;28;20186;-67
2023/03/04 04:43:05;;;;;;;12.07;5.67;;;5.30;99.90;;;;;;4995902;28;20179;-65
2023/03/04 04:45:36;;;;;;;8.80;5.10;;;5.30;99.90;;;;;;4994905;28;20183;-66
2023/03/04 04:48:02;;;;;;;9.33;5.07;;;5.30;99.90;;;;;;4994644;28;20188;-64
2023/03/04 04:50:27;;;;;;;9.93;5.40;;;5.30;99.90;;;;;;4994225;28;20194;-67
2023/03/04 04:52:55;;;;;;;10.50;5.40;;;5.30;99.90;;;;;;4994334;28;20261;-64
2023/03/04 04:55:23;;;;;;;12.10;5.67;;;5.30;99.90;;;;;;4995591;28;20176;-65
2023/03/04 04:57:53;;;;;;;10.37;5.40;;;5.30;99.90;;;;;;4995038;28;20172;-66
2023/03/04 05:00:21;;;;;;;11.27;5.87;;;5.30;99.90;;;;;;4998558;28;20207;-66
2023/03/04 05:02:47;;;;;;;9.93;5.57;;;5.30;99.90;;;;;;4993172;28;20196;-66
2023/03/04 05:05:15;;;;;;;13.10;5.77;;;5.30;99.90;;;;;;4995056;28;20193;-67
2023/03/04 05:07:43;;;;;;;10.73;5.33;;;5.30;99.90;;;;;;4994444;28;20183;-66
2023/03/04 05:10:09;;;;;;;10.23;5.70;;;5.30;99.90;;;;;;4994685;28;20190;-63
2023/03/04 05:12:39;;;;;;;9.83;5.50;;;5.30;99.90;;;;;;5001455;28;20203;-67
2023/03/04 05:15:08;;;;;;;12.03;5.47;;;5.40;99.90;;;;;;4991888;28;20227;-66
2023/03/04 05:17:33;;;;;;;11.33;5.57;;;5.40;99.90;;;;;;4992014;28;20180;-67
2023/03/04 05:19:59;;;;;;;10.27;5.30;;;5.30;99.90;;;;;;4993933;28;20225;-66
2023/03/04 05:22:29;;;;;;;12.43;5.93;;;5.40;99.90;;;;;;4999448;28;20187;-66
2023/03/04 05:24:56;;;;;;;11.43;5.80;;;5.40;99.90;;;;;;4989660;28;20302;-67
2023/03/04 05:27:21;;;;;;;13.50;5.90;;;5.40;99.90;;;;;;4991483;28;20331;-66
2023/03/04 05:29:49;;;;;;;10.33;5.43;;;5.30;99.90;;;;;;4994780;28;20431;-66
2023/03/04 05:32:17;;;;;;;13.07;5.70;;;5.30;99.90;;;;;;4990288;28;20346;-67
2023/03/04 05:34:42;;;;;;;8.97;5.17;;;5.40;99.90;;;;;;4993169;28;20179;-66
2023/03/04 05:37:10;;;;;;;10.43;5.30;;;5.30;99.90;;;;;;4992690;28;20184;-65
2023/03/04 05:39:36;;;;;;;10.23;5.50;;;5.30;99.90;;;;;;4988169;28;21509;-65
2023/03/04 05:42:04;;;;;;;12.00;5.40;;;5.30;99.90;;;;;;4994358;28;20218;-65
2023/03/04 05:44:29;;;;;;;12.23;5.93;;;5.30;99.90;;;;;;4988008;28;20400;-63
2023/03/04 05:46:55;;;;;;;14.23;6.27;;;5.30;99.90;;;;;;4990715;28;20188;-63
2023/03/04 05:49:23;;;;;;;11.27;5.70;;;5.30;99.90;;;;;;4993399;28;20326;-66
2023/03/04 05:51:48;;;;;;;10.83;5.93;;;5.30;99.90;;;;;;4992701;28;20207;-66
2023/03/04 05:54:20;;;;;;;11.50;5.60;;;5.30;99.90;;;;;;4992794;28;20178;-66
2023/03/04 05:56:48;;;;;;;16.73;6.07;;;5.30;99.90;;;;;;4990980;28;20190;-65
2023/03/04 05:59:19;;;;;;;10.40;5.90;;;5.50;99.90;;;;;;4993177;28;20175;-62
2023/03/04 06:01:45;;;;;;;13.20;6.00;;;5.40;99.90;;;;;;4996436;28;20298;-66
2023/03/04 06:04:11;;;;;;;12.80;6.77;;;5.40;99.90;;;;;;5004186;28;20294;-63
2023/03/04 06:06:39;;;;;;;13.27;7.23;;;5.30;99.90;;;;;;4993288;28;20279;-64
2023/03/04 06:09:05;;;;;;;14.73;7.23;;;5.40;99.90;;;;;;4995008;28;20229;-66
2023/03/04 06:11:30;;;;;;;14.67;7.10;;;5.40;99.90;;;;;;4993744;28;20254;-65
2023/03/04 06:13:56;;;;;;;12.33;6.70;;;5.50;99.90;;;;;;4994671;28;20194;-66
2023/03/04 06:16:21;;;;;;;15.53;7.60;;;5.40;99.90;;;;;;4993696;28;20281;-65
2023/03/04 06:18:47;;;;;;;13.13;6.47;;;5.40;99.90;;;;;;4994459;28;20167;-66
2023/03/04 06:21:15;;;;;;;11.30;5.80;;;5.40;99.90;;;;;;4994761;28;20260;-61
2023/03/04 06:23:44;;;;;;;12.83;6.10;;;5.40;99.90;;;;;;5006209;28;20210;-66
2023/03/04 06:26:14;;;;;;;8.30;4.93;;;5.40;99.90;;;;;;4997634;28;20179;-66
2023/03/04 06:28:41;;;;;;;9.70;5.23;;;5.50;99.90;;;;;;4994640;28;20183;-65
2023/03/04 06:31:09;;;;;;;10.83;5.17;;;5.50;99.90;;;;;;4995465;28;20195;-65
2023/03/04 06:33:34;;;;;;;11.70;5.77;;;5.50;99.90;;;;;;4995487;28;20200;-66
2023/03/04 06:36:00;;;;;;;8.90;4.80;;;5.50;99.90;;;;;;5014825;28;20205;-66
2023/03/04 06:38:26;;;;;;;9.20;5.07;;;5.50;99.90;;;;;;5017034;28;20179;-66
2023/03/04 06:40:56;;;;;;;9.40;4.67;;;5.60;99.90;;;;;;4996738;28;20176;-61
2023/03/04 06:43:24;;;;;;;7.63;4.47;;;5.60;99.90;;;;;;4998689;28;20188;-66
2023/03/04 06:45:52;;;;;;;8.87;4.30;;;5.60;99.90;;;;;;4996356;28;20209;-67
2023/03/04 06:48:18;;;;;;;7.80;4.27;;;5.60;99.90;;;;;;4982311;28;20204;-66
2023/03/04 06:50:46;;;;;;;8.10;4.30;;;5.60;99.90;;;;;;4992788;28;20188;-66
2023/03/04 06:53:11;;;;;;;9.30;4.57;;;5.70;99.90;;;;;;4993446;28;20210;-66
2023/03/04 06:55:37;;;;;;;9.73;4.70;;;5.80;99.90;;;;;;4997776;28;20273;-66
2023/03/04 06:58:05;;;;;;;6.77;3.77;;;5.70;99.90;;;;;;4998914;28;20190;-65
2023/03/04 07:00:31;;;;;;;11.10;4.93;;;5.80;99.90;;;;;;4999215;28;20258;-66
2023/03/04 07:02:59;;;;;;;7.50;3.90;;;5.70;99.90;;;;;;5004895;28;20271;-68
2023/03/04 07:05:24;;;;;;;8.63;4.13;;;5.80;99.90;;;;;;4995079;28;20175;-66
2023/03/04 07:07:50;;;;;;;8.43;3.93;;;5.80;99.90;;;;;;4987186;28;20191;-65
2023/03/04 07:10:18;;;;;;;7.50;4.20;;;5.80;99.90;;;;;;4997832;28;20207;-66
2023/03/04 07:12:44;;;;;;;6.47;3.77;;;5.80;99.90;;;;;;4992248;28;20211;-66
2023/03/04 07:15:10;;;;;;;7.70;3.80;;;5.80;99.90;;;;;;4998031;28;20195;-67
2023/03/04 07:17:36;;;;;;;7.70;3.80;;;5.80;99.90;;;;;;4997871;28;20221;-66
2023/03/04 07:20:04;;;;;;;7.07;3.50;;;5.80;99.90;;;;;;4997492;28;20214;-66
2023/03/04 07:22:29;;;;;;;9.80;3.43;;;5.80;99.90;;;;;;4979956;28;20200;-66
2023/03/04 07:24:55;;;;;;;9.97;3.87;;;5.80;99.90;;;;;;4993200;28;20240;-66
2023/03/04 07:27:21;;;;;;;9.03;4.20;;;5.80;99.90;;;;;;4998156;28;20183;-68
2023/03/04 07:29:49;;;;;;;7.53;3.37;;;5.80;99.90;;;;;;4996347;28;20390;-66
2023/03/04 07:32:14;;;;;;;7.70;3.57;;;5.90;99.90;;;;;;4992634;28;20280;-68
2023/03/04 07:34:40;;;;;;;6.80;3.13;;;5.90;99.90;;;;;;4995219;28;20235;-68
2023/03/04 07:37:08;;;;;;;10.63;3.40;;;5.90;99.90;;;;;;4999313;28;20171;-68
2023/03/04 07:39:33;;;;;;;6.63;3.40;;;5.90;99.90;;;;;;4996895;28;20168;-67
2023/03/04 07:41:59;;;;;;;8.00;3.40;;;5.90;99.90;;;;;;4999142;28;20210;-69
2023/03/04 07:44:27;;;;;;;8.77;3.40;;;6.00;99.90;;;;;;4999498;28;20262;-68
2023/03/04 07:46:52;;;;;;;7.77;3.13;;;6.00;99.90;;;;;;4997997;28;20269;-67
2023/03/04 07:49:21;;;;;;;6.03;3.03;;;6.00;99.90;;;;;;4997754;28;20222;-67
2023/03/04 07:51:48;;;;;;;9.70;3.30;;;6.00;99.90;;;;;;4997046;28;20230;-65
2023/03/04 07:54:14;;;;;;;5.67;2.60;;;6.00;99.90;;;;;;4995926;28;20186;-64
2023/03/04 07:56:45;;;;;;;7.70;3.17;;;6.00;99.90;;;;;;4996088;28;20179;-61
2023/03/04 07:59:10;;;;;;;7.53;2.90;;;6.00;99.90;;;;;;4996285;28;20206;-65
2023/03/04 08:01:37;;;;;;;7.80;2.80;;;6.00;99.90;;;;;;4996400;28;20207;-66
2023/03/04 08:04:06;;;;;;;7.00;3.13;;;6.10;99.90;;;;;;5003533;28;20249;-65
2023/03/04 08:06:33;;;;;;;6.03;2.63;;;6.10;99.90;;;;;;4993249;28;20192;-67
2023/03/04 08:09:02;;;;;;;8.47;3.10;;;6.10;99.90;;;;;;4978715;28;20188;-67
2023/03/04 08:11:31;;;;;;;8.57;3.23;;;6.10;99.90;;;;;;4990712;28;20186;-66
2023/03/04 08:13:57;;;;;;;6.80;3.37;;;6.10;99.90;;;;;;4996223;28;20195;-66
2023/03/04 08:16:25;;;;;;;7.23;3.27;;;6.10;99.90;;;;;;4997196;28;20176;-65
2023/03/04 08:18:55;;;;;;;6.80;2.50;;;6.10;99.90;;;;;;4997284;28;20175;-67
2023/03/04 08:21:22;;;;;;;4.03;2.30;;;6.10;99.90;;;;;;5001834;28;20175;-66
2023/03/04 08:23:49;;;;;;;4.87;2.30;;;6.20;99.90;;;;;;4997134;28;20191;-68
2023/03/04 08:26:18;;;;;;;6.13;2.33;;;6.20;99.90;;;;;;4997018;28;20223;-68
2023/03/04 08:28:44;;;;;;;6.97;2.27;;;6.20;99.90;;;;;;4997448;28;20172;-65
2023/03/04 08:31:12;;;;;;;4.80;2.20;;;6.30;99.90;;;;;;4993803;28;20184;-66
2023/03/04 08:33:38;;;;;;;5.43;2.43;;;6.30;99.90;;;;;;4980842;28;20212;-66
2023/03/04 08:36:04;;;;;;;6.87;2.30;;;6.40;99.90;;;;;;4977588;28;20172;-60
2023/03/04 08:38:30;;;;;;;4.43;2.07;;;6.30;99.90;;;;;;4996216;28;20204;-63
2023/03/04 08:40:57;;;;;;;5.60;2.10;;;6.40;99.90;;;;;;4996680;28;20225;-66
2023/03/04 08:43:24;;;;;;;4.23;1.93;;;6.40;99.90;;;;;;4994978;28;20197;-66
2023/03/04 08:45:52;;;;;;;4.77;1.87;;;6.40;99.90;;;;;;4995260;28;20203;-66
2023/03/04 08:48:24;;;;;;;7.43;2.40;;;6.40;99.90;;;;;;4995155;28;20191;-66
2023/03/04 08:50:50;;;;;;;6.17;1.90;;;6.50;99.90;;;;;;4995362;28;20183;-67
2023/03/04 08:53:19;;;;;;;3.60;1.77;;;6.60;99.90;;;;;;4989194;28;20243;-66
2023/03/04 08:55:49;;;;;;;2.30;1.60;;;6.60;99.90;;;;;;4994578;28;20180;-66
2023/03/04 08:58:17;;;;;;;3.57;1.50;;;6.60;99.90;;;;;;4991600;28;20180;-67
2023/03/04 09:00:47;;;;;;;2.87;1.63;;;6.70;99.90;;;;;;4995162;28;20175;-68
2023/03/04 09:03:13;;;;;;;3.70;1.97;;;6.60;99.90;;;;;;4985633;28;20178;-66
2023/03/04 09:05:41;;;;;;;4.37;1.90;;;6.60;99.90;;;;;;4995571;28;20280;-67
2023/03/04 09:08:09;;;;;;;4.70;2.13;;;6.70;99.90;;;;;;4992960;28;20207;-67
2023/03/04 09:10:38;;;;;;;3.53;1.80;;;6.70;99.90;;;;;;4986218;28;20211;-67
2023/03/04 09:13:05;;;;;;;8.23;2.60;;;6.70;99.90;;;;;;4995963;28;20199;-67
2023/03/04 09:15:31;;;;;;;3.67;2.07;;;6.70;99.90;;;;;;4997889;28;20186;-66
2023/03/04 09:17:56;;;;;;;7.23;2.40;;;6.80;99.90;;;;;;5008488;28;20238;-67
2023/03/04 09:20:22;;;;;;;6.30;2.50;;;6.70;99.90;;;;;;4995802;28;20171;-66
2023/03/04 09:22:47;;;;;;;7.57;2.40;;;6.80;99.90;;;;;;4995148;28;20183;-67
2023/03/04 09:25:14;;;;;;;8.03;2.27;;;6.80;99.90;;;;;;4995564;28;20198;-67
2023/03/04 09:27:40;;;;;;;6.70;2.17;;;6.80;99.90;;;;;;4995076;28;20175;-67
2023/03/04 09:30:09;;;;;;;3.43;1.90;;;6.80;99.90;;;;;;4996125;28;20194;-62
2023/03/04 09:32:37;;;;;;;3.97;2.17;;;6.80;99.90;;;;;;5004197;28;20307;-66
2023/03/04 09:35:04;;;;;;;2.90;1.60;;;6.80;99.90;;;;;;4994745;28;20180;-69
2023/03/04 09:37:32;;;;;;;3.13;2.10;;;6.80;99.90;;;;;;4994829;28;20306;-67
2023/03/04 09:40:03;;;;;;;5.37;2.57;;;6.80;99.90;;;;;;4994813;28;20297;-67
2023/03/04 09:42:45;;;;;;;5.23;2.17;;;6.90;99.90;;;;;;4995453;28;20199;-67
2023/03/04 09:45:16;;;;;;;6.10;2.20;;;6.90;99.90;;;;;;4991314;28;20191;-66
2023/03/04 09:47:49;;;;;;;5.57;2.20;;;6.90;99.90;;;;;;4988797;28;20270;-68
2023/03/04 09:50:16;;;;;;;2.97;2.03;;;6.90;99.90;;;;;;4989238;28;20206;-66
2023/03/04 09:53:24;;;;;;;5.57;2.07;;;6.90;99.90;;;;;;4994512;28;20218;-67
2023/03/04 09:55:54;;;;;;;3.40;1.70;;;7.00;99.90;;;;;;4938981;29;20304;-67
2023/03/04 09:58:43;;;;;;;6.20;2.33;;;7.00;99.90;;;;;;4988053;28;20282;-64
2023/03/04 10:01:12;;;;;;;3.60;1.90;;;7.00;99.90;;;;;;4984027;28;20271;-68
2023/03/04 10:04:02;;;;;;;9.03;2.30;;;7.10;99.90;;;;;;4997506;28;20198;-66
2023/03/04 10:06:33;;;;;;;5.37;1.80;;;7.10;99.90;;;;;;4994827;28;20272;-67
2023/03/04 10:09:05;;;;;;;3.10;1.73;;;7.10;99.90;;;;;;4996771;28;20180;-67
2023/03/04 10:11:36;;;;;;;3.27;1.60;;;7.20;99.90;;;;;;5008345;28;20323;-67
2023/03/04 10:14:22;;;;;;;5.07;1.90;;;7.30;99.90;;;;;;4995277;28;20179;-67
2023/03/04 10:17:12;;;;;;;3.60;2.40;;;7.40;99.90;;;;;;4956084;28;20195;-67
2023/03/04 10:19:51;;;;;;;5.03;2.50;;;7.50;99.90;;;;;;4975847;28;20207;-67
2023/03/04 10:22:33;;;;;;;3.60;2.10;;;7.60;99.90;;;;;;4995779;28;20202;-67
2023/03/04 10:25:21;;;;;;;3.53;2.23;;;7.80;99.90;;;;;;4990554;28;20199;-66
2023/03/04 10:27:55;;;;;;;3.83;2.10;;;7.90;99.90;;;;;;4990275;28;20207;-67
2023/03/04 10:30:57;;;;;;;3.57;1.90;;;8.20;99.90;;;;;;4994817;28;20181;-67
2023/03/04 10:33:42;;;;;;;6.03;2.27;;;8.20;99.90;;;;;;4994555;28;20202;-65
2023/03/04 10:36:31;;;;;;;4.77;1.77;;;8.40;99.90;;;;;;4994255;28;20175;-66
2023/03/04 10:39:00;;;;;;;3.33;1.50;;;8.30;99.90;;;;;;4993600;28;20195;-66
2023/03/04 10:41:28;;;;;;;4.10;1.53;;;8.30;99.90;;;;;;4993646;28;20277;-59
2023/03/04 10:44:08;;;;;;;4.53;1.60;;;8.30;99.90;;;;;;4985882;28;20179;-65
2023/03/04 10:46:48;;;;;;;2.10;1.40;;;8.30;99.90;;;;;;4990768;28;20262;-67
2023/03/04 10:49:25;;;;;;;5.10;1.63;;;8.20;99.90;;;;;;4993706;28;20175;-67
2023/03/04 10:52:14;;;;;;;3.67;1.40;;;8.30;99.90;;;;;;4993436;28;20227;-67
2023/03/04 10:54:54;;;;;;;3.00;1.57;;;8.20;99.90;;;;;;4990846;28;20226;-67
2023/03/04 10:57:36;;;;;;;4.93;1.70;;;8.30;99.90;;;;;;4987779;28;20184;-63
2023/03/04 11:00:30;;;;;;;2.47;1.40;;;8.20;99.90;;;;;;4990812;28;20195;-64
2023/03/04 11:03:24;;;;;;;2.90;1.83;;;8.30;99.90;;;;;;4983533;28;20208;-67
2023/03/04 11:06:23;;;;;;;3.20;1.80;;;8.30;99.90;;;;;;4984199;28;20209;-67
2023/03/04 11:08:57;;;;;;;3.27;2.10;;;8.30;99.90;;;;;;4997175;28;20215;-67
2023/03/04 11:11:29;;;;;;;3.30;2.00;;;8.40;99.90;;;;;;4994659;28;20288;-67
2023/03/04 11:13:59;;;;;;;4.00;2.43;;;8.40;99.90;;;;;;4982734;28;20199;-65
2023/03/04 11:16:31;;;;;;;5.47;2.80;;;8.40;99.90;;;;;;4996945;28;20262;-65
2023/03/04 11:19:07;;;;;;;5.87;2.93;;;8.40;99.90;;;;;;4996822;28;20205;-65
2023/03/04 11:21:37;;;;;;;6.40;2.90;;;8.40;99.90;;;;;;4996766;28;20175;-67
2023/03/04 11:24:10;;;;;;;4.70;2.70;;;8.30;99.90;;;;;;4997352;28;20250;-66
2023/03/04 11:26:41;;;;;;;5.40;3.00;;;8.20;99.90;;;;;;4997385;28;20226;-66
2023/03/04 11:29:32;;;;;;;5.30;2.77;;;8.20;99.90;;;;;;4996626;28;20258;-66
2023/03/04 11:32:23;;;;;;;5.03;2.70;;;8.20;99.90;;;;;;5012956;28;20219;-66
2023/03/04 11:35:30;;;;;;;4.03;2.50;;;8.20;99.90;;;;;;4996168;28;20330;-66
2023/03/04 11:38:16;;;;;;;5.07;2.20;;;8.20;99.90;;;;;;4979106;28;20195;-66
2023/03/04 11:40:53;;;;;;;5.63;2.73;;;8.20;99.90;;;;;;4996751;28;20217;-66
2023/03/04 11:43:34;;;;;;;4.73;3.10;;;8.30;99.90;;;;;;4995567;28;20189;-66
2023/03/04 11:46:10;;;;;;;5.47;2.60;;;8.40;99.90;;;;;;4996797;28;20187;-65
2023/03/04 11:49:03;;;;;;;5.97;2.87;;;8.40;99.90;;;;;;4996860;28;20233;-67
2023/03/04 11:51:48;;;;;;;4.53;2.70;;;8.30;99.90;;;;;;4981704;28;20207;-67
2023/03/04 11:54:31;;;;;;;8.43;2.70;;;8.20;99.90;;;;;;4986117;28;20179;-66
2023/03/04 11:57:04;;;;;;;4.30;2.27;;;8.20;99.90;;;;;;4996255;28;20194;-66
2023/03/04 11:59:32;;;;;;;6.40;2.43;;;8.10;99.90;;;;;;4996394;28;20203;-67
2023/03/04 12:02:15;;;;;;;3.57;2.47;;;8.10;99.90;;;;;;4996546;28;20175;-67
2023/03/04 12:05:11;;;;;;;5.00;2.43;;;8.00;99.90;;;;;;4993377;28;20200;-66
2023/03/04 12:07:36;;;;;;;3.83;2.70;;;8.00;99.90;;;;;;4998630;28;20186;-66
2023/03/04 12:10:46;;;;;;;5.10;3.40;;;8.10;99.90;;;;;;5007789;28;20175;-66
2023/03/04 12:13:33;;;;;;;4.13;3.10;;;8.20;99.90;;;;;;5001262;28;20215;-67
2023/03/04 12:16:14;;;;;;;7.60;3.40;;;8.30;99.90;;;;;;4996916;28;20175;-67
2023/03/04 12:18:45;;;;;;;4.50;3.07;;;8.40;99.90;;;;;;4996370;28;20446;-67
2023/03/04 12:21:19;;;;;;;4.40;3.20;;;8.50;99.90;;;;;;5009628;28;20179;-67
2023/03/04 12:24:03;;;;;;;4.07;2.83;;;8.60;99.90;;;;;;5019783;28;20184;-66
2023/03/04 12:26:53;;;;;;;4.67;3.03;;;8.60;99.90;;;;;;4977075;28;20247;-66
2023/03/04 12:29:26;;;;;;;3.97;2.70;;;8.70;99.90;;;;;;4977018;28;20157;-65
2023/03/04 12:32:19;;;;;;;6.27;2.53;;;8.70;99.90;;;;;;4979751;28;20180;-65
2023/03/04 12:34:53;;;;;;;5.30;2.40;;;8.70;99.90;;;;;;4992981;28;20165;-67
2023/03/04 12:37:39;;;;;;;4.03;2.47;;;8.70;99.90;;;;;;4987893;28;20327;-66
2023/03/04 12:40:20;;;;;;;2.80;2.20;;;8.70;99.90;;;;;;4995096;28;20174;-67
2023/03/04 12:43:07;;;;;;;8.07;2.40;;;8.60;99.90;;;;;;4977030;28;20176;-66
2023/03/04 12:45:39;;;;;;;2.73;1.83;;;8.70;99.90;;;;;;4989690;28;20175;-66
2023/03/04 12:48:31;;;;;;;3.90;2.30;;;8.60;99.90;;;;;;4995749;28;20314;-66
2023/03/04 12:51:06;;;;;;;3.93;2.03;;;8.60;99.90;;;;;;4995293;28;20282;-67
2023/03/04 12:53:47;;;;;;;3.27;1.80;;;8.60;99.90;;;;;;4981097;28;20195;-66
2023/03/04 12:56:31;;;;;;;4.20;2.37;;;8.70;99.90;;;;;;4992037;28;20245;-67
2023/03/04 12:58:58;;;;;;;3.70;2.47;;;8.70;99.90;;;;;;4996110;28;20175;-67
2023/03/04 13:01:41;;;;;;;4.13;2.40;;;8.70;99.90;;;;;;4996153;28;20247;-66
2023/03/04 13:04:31;;;;;;;2.97;2.10;;;8.70;99.90;;;;;;5003608;28;20191;-66
2023/03/04 13:07:06;;;;;;;3.03;2.20;;;8.70;99.90;;;;;;4990417;28;20176;-67
2023/03/04 13:09:42;;;;;;;3.10;2.10;;;8.70;99.90;;;;;;4988492;28;20174;-67